createdAt,value
2023-08-16T00:00:34.661Z,23.46
2023-08-16T00:03:01.242Z,23.51
2023-08-16T00:05:29.824Z,23.51
2023-08-16T00:07:56.298Z,23.46
2023-08-16T00:10:23.024Z,23.41
2023-08-16T00:12:49.529Z,23.38
2023-08-16T00:15:16.195Z,23.42
2023-08-16T00:17:42.712Z,23.45
2023-08-16T00:20:09.187Z,23.49
2023-08-16T00:22:35.661Z,23.51
2023-08-16T00:25:03.654Z,23.52
2023-08-16T00:27:31.173Z,23.52
2023-08-16T00:29:57.773Z,23.49
2023-08-16T00:32:24.256Z,23.51
2023-08-16T00:34:50.961Z,23.53
2023-08-16T00:37:17.415Z,23.55
2023-08-16T00:39:44.176Z,23.54
2023-08-16T00:42:10.763Z,23.50
2023-08-16T00:44:37.794Z,23.49
2023-08-16T00:47:05.936Z,23.51
2023-08-16T00:49:32.552Z,23.49
2023-08-16T00:51:59.024Z,23.47
2023-08-16T00:54:25.722Z,23.42
2023-08-16T00:56:52.196Z,23.35
2023-08-16T00:59:18.926Z,23.36
2023-08-16T01:01:45.427Z,23.39
2023-08-16T01:04:12.143Z,23.40
2023-08-16T01:06:39.705Z,23.38
2023-08-16T01:09:06.287Z,23.34
2023-08-16T01:11:32.725Z,23.31
2023-08-16T01:13:59.482Z,23.27
2023-08-16T01:16:26.151Z,23.25
2023-08-16T01:18:52.735Z,23.21
2023-08-16T01:21:19.261Z,23.20
2023-08-16T01:23:46.024Z,23.17
2023-08-16T01:26:12.473Z,23.17
2023-08-16T01:28:39.297Z,23.14
2023-08-16T01:31:05.760Z,23.13
2023-08-16T01:33:32.484Z,23.11
2023-08-16T01:35:58.959Z,23.13
2023-08-16T01:38:25.694Z,23.13
2023-08-16T01:40:52.286Z,23.08
2023-08-16T01:43:19.881Z,23.06
2023-08-16T01:45:46.538Z,23.03
2023-08-16T01:48:14.096Z,22.98
2023-08-16T01:50:40.691Z,22.94
2023-08-16T01:53:07.277Z,22.93
2023-08-16T01:55:33.860Z,22.87
2023-08-16T01:58:00.458Z,22.87
2023-08-16T02:00:27.033Z,22.83
2023-08-16T02:02:53.655Z,22.83
2023-08-16T02:05:20.134Z,22.81
2023-08-16T02:07:46.579Z,22.77
2023-08-16T02:10:13.050Z,22.76
2023-08-16T02:12:39.528Z,22.69
2023-08-16T02:15:06.143Z,22.56
2023-08-16T02:17:32.645Z,22.51
2023-08-16T02:19:59.135Z,22.43
2023-08-16T02:22:25.623Z,22.38
2023-08-16T02:24:52.136Z,22.32
2023-08-16T02:27:18.658Z,22.34
2023-08-16T02:29:45.132Z,22.32
2023-08-16T02:32:11.583Z,22.29
2023-08-16T02:34:38.071Z,22.28
2023-08-16T02:37:04.552Z,22.28
2023-08-16T02:39:31.030Z,22.26
2023-08-16T02:41:58.133Z,22.28
2023-08-16T02:44:24.713Z,22.32
2023-08-16T02:46:51.204Z,22.32
2023-08-16T02:49:17.720Z,22.36
2023-08-16T02:51:44.190Z,22.41
2023-08-16T02:54:10.641Z,22.42
2023-08-16T02:56:37.093Z,22.42
2023-08-16T02:59:03.552Z,22.43
2023-08-16T03:01:30.036Z,22.37
2023-08-16T03:03:56.497Z,22.29
2023-08-16T03:06:23.152Z,22.22
2023-08-16T03:08:49.643Z,22.14
2023-08-16T03:11:16.279Z,22.07
2023-08-16T03:13:42.860Z,21.97
2023-08-16T03:16:09.372Z,21.81
2023-08-16T03:18:35.877Z,21.75
2023-08-16T03:21:02.354Z,21.75
2023-08-16T03:23:29.227Z,21.73
2023-08-16T03:25:55.710Z,21.77
2023-08-16T03:28:22.375Z,21.83
2023-08-16T03:30:48.854Z,21.91
2023-08-16T03:33:15.420Z,21.96
2023-08-16T03:35:41.867Z,21.97
2023-08-16T03:38:08.730Z,21.97
2023-08-16T03:40:36.313Z,21.89
2023-08-16T03:43:02.877Z,21.81
2023-08-16T03:45:30.526Z,21.79
2023-08-16T03:47:57.118Z,21.80
2023-08-16T03:50:25.708Z,21.76
2023-08-16T03:52:52.178Z,21.81
2023-08-16T03:55:18.887Z,21.83
2023-08-16T03:57:45.343Z,21.83
2023-08-16T04:00:12.070Z,21.82
2023-08-16T04:02:38.647Z,21.80
2023-08-16T04:05:05.184Z,21.77
2023-08-16T04:07:31.669Z,21.79
2023-08-16T04:09:58.112Z,21.70
2023-08-16T04:12:24.602Z,21.61
2023-08-16T04:14:51.643Z,21.56
2023-08-16T04:17:18.127Z,21.54
2023-08-16T04:19:44.817Z,21.51
2023-08-16T04:22:11.269Z,21.46
2023-08-16T04:24:37.740Z,21.43
2023-08-16T04:27:04.247Z,21.44
2023-08-16T04:29:30.704Z,21.49
2023-08-16T04:31:57.168Z,21.52
2023-08-16T04:34:24.328Z,21.50
2023-08-16T04:36:50.826Z,21.55
2023-08-16T04:39:17.312Z,21.59
2023-08-16T04:41:43.767Z,21.70
2023-08-16T04:44:10.705Z,21.76
2023-08-16T04:46:37.136Z,21.77
2023-08-16T04:49:03.914Z,21.76
2023-08-16T04:51:30.507Z,21.73
2023-08-16T04:53:57.088Z,21.76
2023-08-16T04:56:23.530Z,21.80
2023-08-16T04:58:49.960Z,21.85
2023-08-16T05:01:16.495Z,21.90
2023-08-16T05:03:43.442Z,21.96
2023-08-16T05:06:11.086Z,22.00
2023-08-16T05:08:37.669Z,22.04
2023-08-16T05:11:04.300Z,22.10
2023-08-16T05:13:30.800Z,22.19
2023-08-16T05:15:57.271Z,22.30
2023-08-16T05:18:24.009Z,22.42
2023-08-16T05:20:50.520Z,22.49
2023-08-16T05:23:20.411Z,22.56
2023-08-16T05:25:47.808Z,22.62
2023-08-16T05:28:15.005Z,22.66
2023-08-16T05:30:41.534Z,22.72
2023-08-16T05:33:08.124Z,22.81
2023-08-16T05:35:34.661Z,22.87
2023-08-16T05:38:01.126Z,22.86
2023-08-16T05:40:28.118Z,22.82
2023-08-16T05:42:55.017Z,22.82
2023-08-16T05:45:21.517Z,22.79
2023-08-16T05:47:48.266Z,22.84
2023-08-16T05:50:14.753Z,22.95
2023-08-16T05:52:41.467Z,23.11
2023-08-16T05:55:07.949Z,23.25
2023-08-16T05:57:34.666Z,23.37
2023-08-16T06:00:01.146Z,23.48
2023-08-16T06:02:28.142Z,23.55
2023-08-16T06:04:54.760Z,23.64
2023-08-16T06:07:21.771Z,23.76
2023-08-16T06:09:48.439Z,23.89
2023-08-16T06:12:16.907Z,24.00
2023-08-16T06:14:45.131Z,24.06
2023-08-16T06:17:12.231Z,24.11
2023-08-16T06:19:39.544Z,24.13
2023-08-16T06:22:06.499Z,24.18
2023-08-16T06:24:33.080Z,24.27
2023-08-16T06:27:00.336Z,24.34
2023-08-16T06:29:29.022Z,24.40
2023-08-16T06:31:56.947Z,24.49
2023-08-16T06:34:24.147Z,24.53
2023-08-16T06:36:51.076Z,24.54
2023-08-16T06:39:17.763Z,24.43
2023-08-16T06:41:44.251Z,24.48
2023-08-16T06:44:10.970Z,24.45
2023-08-16T06:46:38.016Z,24.46
2023-08-16T06:49:04.830Z,24.49
2023-08-16T06:51:31.467Z,24.54
2023-08-16T06:53:57.947Z,24.63
2023-08-16T06:56:25.562Z,24.70
2023-08-16T06:58:52.720Z,24.74
2023-08-16T07:01:19.943Z,24.80
2023-08-16T07:03:46.535Z,24.90
2023-08-16T07:06:14.127Z,24.98
2023-08-16T07:08:40.717Z,25.05
2023-08-16T07:11:07.330Z,25.10
2023-08-16T07:13:33.822Z,25.24
2023-08-16T07:16:00.618Z,25.37
2023-08-16T07:18:28.166Z,25.47
2023-08-16T07:20:55.779Z,25.45
2023-08-16T07:23:22.261Z,25.54
2023-08-16T07:25:48.751Z,25.62
2023-08-16T07:28:15.221Z,25.70
2023-08-16T07:30:41.693Z,25.74
2023-08-16T07:33:08.148Z,25.79
2023-08-16T07:35:35.665Z,25.85
2023-08-16T07:38:03.260Z,25.88
2023-08-16T07:40:31.055Z,25.95
2023-08-16T07:42:59.511Z,25.97
2023-08-16T07:45:26.007Z,26.00
2023-08-16T07:47:52.526Z,25.96
2023-08-16T07:50:19.007Z,25.86
2023-08-16T07:52:45.505Z,25.86
2023-08-16T07:55:11.994Z,25.95
2023-08-16T07:57:38.908Z,25.94
2023-08-16T08:00:06.768Z,25.99
2023-08-16T08:02:44.990Z,25.99
2023-08-16T08:05:17.041Z,26.00
2023-08-16T08:07:43.559Z,26.03
2023-08-16T08:10:10.002Z,26.08
2023-08-16T08:12:36.483Z,26.09
2023-08-16T08:15:09.326Z,26.15
2023-08-16T08:17:37.495Z,26.18
2023-08-16T08:20:05.031Z,26.20
2023-08-16T08:22:31.864Z,26.31
2023-08-16T08:24:59.435Z,26.42
2023-08-16T08:27:25.919Z,26.50
2023-08-16T08:29:52.440Z,26.57
2023-08-16T08:32:18.946Z,26.59
2023-08-16T08:34:45.445Z,26.57
2023-08-16T08:37:11.898Z,26.58
2023-08-16T08:39:38.469Z,26.61
2023-08-16T08:42:04.959Z,26.68
2023-08-16T08:44:32.202Z,26.85
2023-08-16T08:47:03.833Z,26.91
2023-08-16T08:49:38.502Z,26.87
2023-08-16T08:52:04.955Z,26.94
2023-08-16T08:54:31.417Z,27.06
2023-08-16T08:56:57.880Z,27.04
2023-08-16T08:59:24.336Z,27.09
2023-08-16T09:01:50.865Z,27.17
2023-08-16T09:04:17.449Z,27.27
2023-08-16T09:06:43.901Z,27.22
2023-08-16T09:09:10.338Z,27.32
2023-08-16T09:11:36.852Z,27.42
2023-08-16T09:14:03.353Z,27.54
2023-08-16T09:16:29.931Z,27.61
2023-08-16T09:18:56.432Z,27.55
2023-08-16T09:21:22.916Z,27.61
2023-08-16T09:23:49.378Z,27.70
2023-08-16T09:26:15.898Z,27.84
2023-08-16T09:28:42.433Z,27.89
2023-08-16T09:31:08.896Z,28.01
2023-08-16T09:33:35.385Z,28.14
2023-08-16T09:36:01.859Z,28.26
2023-08-16T09:40:57.658Z,28.41
2023-08-16T09:43:24.144Z,28.50
2023-08-16T09:45:50.649Z,28.59
2023-08-16T09:48:17.290Z,28.55
2023-08-16T09:55:42.859Z,28.56
2023-08-16T09:58:09.345Z,28.69
2023-08-16T10:00:35.864Z,28.84
2023-08-16T10:03:02.426Z,28.97
2023-08-16T10:08:12.793Z,29.15
2023-08-16T10:10:39.306Z,29.20
2023-08-16T10:13:05.818Z,29.25
2023-08-16T10:15:32.269Z,29.29
2023-08-16T10:17:58.792Z,29.30
2023-08-16T10:20:25.297Z,29.30
2023-08-16T10:22:51.864Z,29.37
2023-08-16T10:25:18.704Z,29.37
2023-08-16T10:27:45.706Z,29.29
2023-08-16T10:30:12.193Z,29.17
2023-08-16T10:32:38.705Z,29.12
2023-08-16T10:35:05.205Z,29.09
2023-08-16T10:37:31.646Z,29.09
2023-08-16T10:40:12.118Z,29.08
2023-08-16T10:42:39.262Z,29.11
2023-08-16T10:45:05.749Z,29.16
2023-08-16T10:47:32.302Z,29.08
2023-08-16T10:49:58.789Z,29.13
2023-08-16T10:52:25.230Z,29.13
2023-08-16T10:54:51.701Z,29.18
2023-08-16T10:57:18.162Z,29.20
2023-08-16T10:59:44.615Z,29.15
2023-08-16T11:02:11.190Z,29.18
2023-08-16T11:04:37.900Z,29.19
2023-08-16T11:07:05.340Z,29.29
2023-08-16T11:09:32.209Z,29.38
2023-08-16T11:11:58.682Z,29.49
2023-08-16T11:14:25.146Z,29.54
2023-08-16T11:16:51.675Z,29.60
2023-08-16T11:19:18.836Z,29.70
2023-08-16T11:21:45.487Z,29.73
2023-08-16T11:24:12.010Z,29.75
2023-08-16T11:26:38.504Z,29.74
2023-08-16T11:29:04.954Z,29.82
2023-08-16T11:31:31.429Z,29.86
2023-08-16T11:33:57.931Z,29.90
2023-08-16T11:36:24.378Z,29.95
2023-08-16T11:38:50.833Z,29.93
2023-08-16T11:41:17.838Z,29.94
2023-08-16T11:43:44.415Z,29.89
2023-08-16T11:46:11.043Z,29.81
2023-08-16T11:48:37.507Z,29.82
2023-08-16T11:51:04.025Z,29.91
2023-08-16T11:53:30.480Z,30.01
2023-08-16T11:55:56.967Z,30.11
2023-08-16T11:58:23.434Z,30.22
2023-08-16T12:00:49.944Z,30.30
2023-08-16T12:03:16.524Z,30.34
2023-08-16T12:05:42.992Z,30.37
2023-08-16T12:08:09.462Z,30.41
2023-08-16T12:10:35.930Z,30.48
2023-08-16T12:13:02.399Z,30.42
2023-08-16T12:15:28.859Z,30.37
2023-08-16T12:17:55.327Z,30.41
2023-08-16T12:20:21.814Z,30.46
2023-08-16T12:22:48.297Z,30.53
2023-08-16T12:25:14.799Z,30.58
2023-08-16T12:27:41.240Z,30.59
2023-08-16T12:30:07.707Z,30.55
2023-08-16T12:32:34.211Z,30.51
2023-08-16T12:35:01.394Z,30.48
2023-08-16T12:37:28.180Z,30.52
2023-08-16T12:39:54.689Z,30.52
2023-08-16T12:42:21.131Z,30.60
2023-08-16T12:44:47.610Z,30.67
2023-08-16T12:47:14.075Z,30.73
2023-08-16T12:49:40.528Z,30.78
2023-08-16T12:52:06.977Z,30.81
2023-08-16T12:54:37.925Z,30.86
2023-08-16T12:57:07.007Z,30.89
2023-08-16T12:59:34.146Z,30.88
2023-08-16T13:02:03.277Z,30.91
2023-08-16T13:04:36.202Z,30.90
2023-08-16T13:07:06.323Z,30.88
2023-08-16T13:09:51.516Z,30.90
2023-08-16T13:15:06.561Z,31.05
2023-08-16T13:20:05.254Z,31.11
2023-08-16T13:25:12.600Z,31.13
2023-08-16T13:27:42.085Z,31.14
2023-08-16T13:30:17.657Z,31.11
2023-08-16T13:33:05.334Z,31.07
2023-08-16T13:35:33.110Z,31.03
2023-08-16T13:38:00.012Z,31.00
2023-08-16T13:40:34.025Z,30.98
2023-08-16T13:45:31.994Z,30.97
2023-08-16T13:47:58.855Z,30.98
2023-08-16T13:50:25.442Z,31.02
2023-08-16T13:52:52.034Z,30.98
2023-08-16T13:55:18.515Z,31.03
2023-08-16T13:57:46.445Z,31.05
2023-08-16T14:00:13.142Z,31.05
2023-08-16T14:02:39.794Z,31.02
2023-08-16T14:05:07.344Z,31.05
2023-08-16T14:07:34.912Z,31.06
2023-08-16T14:10:01.375Z,31.03
2023-08-16T14:12:28.126Z,31.01
2023-08-16T14:14:54.751Z,30.98
2023-08-16T14:17:22.373Z,30.97
2023-08-16T14:19:49.906Z,30.96
2023-08-16T14:22:17.502Z,30.98
2023-08-16T14:24:44.157Z,30.94
2023-08-16T14:27:11.696Z,30.78
2023-08-16T14:29:38.268Z,30.76
2023-08-16T14:32:05.869Z,30.77
2023-08-16T14:34:32.578Z,30.78
2023-08-16T14:36:59.081Z,30.79
2023-08-16T14:39:25.571Z,30.80
2023-08-16T14:41:52.062Z,30.81
2023-08-16T14:44:18.506Z,30.77
2023-08-16T14:46:44.975Z,30.79
2023-08-16T14:49:11.459Z,30.79
2023-08-16T14:51:37.953Z,30.82
2023-08-16T14:54:04.423Z,30.85
2023-08-16T14:56:30.869Z,30.89
2023-08-16T14:58:58.352Z,30.93
2023-08-16T15:01:24.835Z,30.99
2023-08-16T15:03:51.596Z,31.06
2023-08-16T15:06:19.134Z,31.14
2023-08-16T15:08:45.726Z,31.20
2023-08-16T15:11:12.330Z,31.24
2023-08-16T15:13:38.911Z,31.30
2023-08-16T15:16:05.389Z,31.36
2023-08-16T15:18:31.885Z,31.41
2023-08-16T15:20:58.402Z,31.51
2023-08-16T15:23:25.312Z,31.57
2023-08-16T15:25:51.855Z,31.65
2023-08-16T15:28:18.586Z,31.84
2023-08-16T15:30:45.041Z,32.02
2023-08-16T15:33:11.692Z,32.15
2023-08-16T15:35:39.254Z,32.22
2023-08-16T15:38:05.848Z,32.25
2023-08-16T15:40:32.326Z,32.26
2023-08-16T15:42:59.009Z,32.31
2023-08-16T15:45:25.462Z,32.29
2023-08-16T15:47:52.208Z,32.30
2023-08-16T15:50:18.707Z,32.31
2023-08-16T15:52:46.395Z,32.47
2023-08-16T15:55:13.000Z,32.63
2023-08-16T15:57:40.575Z,32.75
2023-08-16T16:00:07.161Z,32.73
2023-08-16T16:02:33.787Z,32.75
2023-08-16T16:05:00.313Z,32.90
2023-08-16T16:07:27.144Z,33.06
2023-08-16T16:09:54.507Z,33.10
2023-08-16T16:12:20.958Z,33.03
2023-08-16T16:14:47.698Z,32.99
2023-08-16T16:17:14.283Z,32.97
2023-08-16T16:19:40.864Z,33.07
2023-08-16T16:22:07.358Z,33.04
2023-08-16T16:24:33.825Z,32.90
2023-08-16T16:27:00.275Z,32.77
2023-08-16T16:29:27.224Z,32.67
2023-08-16T16:31:53.814Z,32.62
2023-08-16T16:34:21.592Z,32.64
2023-08-16T16:36:48.195Z,32.56
2023-08-16T16:39:15.609Z,32.46
2023-08-16T16:41:42.182Z,32.41
2023-08-16T16:44:08.812Z,32.40
2023-08-16T16:46:35.325Z,32.43
2023-08-16T16:49:01.983Z,32.24
2023-08-16T16:51:28.467Z,32.25
2023-08-16T16:53:55.153Z,32.18
2023-08-16T16:56:21.769Z,31.97
2023-08-16T16:58:48.217Z,31.87
2023-08-16T17:01:14.715Z,31.91
2023-08-16T17:03:41.316Z,31.92
2023-08-16T17:06:08.099Z,31.81
2023-08-16T17:08:35.713Z,31.63
2023-08-16T17:11:02.302Z,31.51
2023-08-16T17:13:28.791Z,31.40
2023-08-16T17:15:55.590Z,31.38
2023-08-16T17:18:23.077Z,31.42
2023-08-16T17:20:49.682Z,31.34
2023-08-16T17:23:17.290Z,31.28
2023-08-16T17:25:44.861Z,31.17
2023-08-16T17:28:11.366Z,30.99
2023-08-16T17:30:37.991Z,30.85
2023-08-16T17:33:04.628Z,30.70
2023-08-16T17:35:32.495Z,30.54
2023-08-16T17:37:58.985Z,30.41
2023-08-16T17:40:26.401Z,30.29
2023-08-16T17:42:52.983Z,30.13
2023-08-16T17:45:19.636Z,29.92
2023-08-16T17:47:46.276Z,29.69
2023-08-16T17:50:13.829Z,29.46
2023-08-16T17:52:41.400Z,29.22
2023-08-16T17:55:10.716Z,29.03
2023-08-16T17:57:37.596Z,28.88
2023-08-16T18:00:04.207Z,28.67
2023-08-16T18:02:30.741Z,28.46
2023-08-16T18:04:57.437Z,28.20
2023-08-16T18:07:24.201Z,28.00
2023-08-16T18:09:52.694Z,27.95
2023-08-16T18:12:19.141Z,27.92
2023-08-16T18:14:45.854Z,27.95
2023-08-16T18:17:12.479Z,27.99
2023-08-16T18:19:40.045Z,27.98
2023-08-16T18:22:06.624Z,28.01
2023-08-16T18:24:33.978Z,28.09
2023-08-16T18:27:00.540Z,28.19
2023-08-16T18:29:27.001Z,28.24
2023-08-16T18:31:53.983Z,28.30
2023-08-16T18:34:20.494Z,28.31
2023-08-16T18:36:47.160Z,28.34
2023-08-16T18:39:13.616Z,28.32
2023-08-16T18:41:40.083Z,28.34
2023-08-16T18:44:06.560Z,28.40
2023-08-16T18:46:33.617Z,28.37
2023-08-16T18:49:01.192Z,28.32
2023-08-16T18:51:27.626Z,28.24
2023-08-16T18:53:55.472Z,28.15
2023-08-16T18:56:21.948Z,28.15
2023-08-16T18:58:49.707Z,28.14
2023-08-16T19:01:18.490Z,28.12
2023-08-16T19:03:45.982Z,28.15
2023-08-16T19:06:12.480Z,28.01
2023-08-16T19:08:38.977Z,27.94
2023-08-16T19:11:05.452Z,27.78
2023-08-16T19:13:31.888Z,27.67
2023-08-16T19:15:58.452Z,27.62
2023-08-16T19:18:24.927Z,27.56
2023-08-16T19:20:51.373Z,27.44
2023-08-16T19:23:17.819Z,27.35
2023-08-16T19:25:44.396Z,27.28
2023-08-16T19:28:11.271Z,27.26
2023-08-16T19:30:37.919Z,27.27
2023-08-16T19:33:06.970Z,27.33
2023-08-16T19:35:43.484Z,27.19
2023-08-16T19:38:10.449Z,27.12
2023-08-16T19:40:37.172Z,27.02
2023-08-16T19:43:04.007Z,26.95
2023-08-16T19:45:31.769Z,26.91
2023-08-16T19:48:07.400Z,26.82
2023-08-16T19:50:35.158Z,26.82
2023-08-16T19:53:01.675Z,26.74
2023-08-16T19:55:28.432Z,26.78
2023-08-16T19:57:56.033Z,26.74
2023-08-16T20:00:25.350Z,26.76
2023-08-16T20:02:54.277Z,26.75
2023-08-16T20:05:24.165Z,26.76
2023-08-16T20:07:52.329Z,26.74
2023-08-16T20:10:19.234Z,26.73
2023-08-16T20:12:46.508Z,26.69
2023-08-16T20:15:14.610Z,26.70
2023-08-16T20:17:41.287Z,26.69
2023-08-16T20:20:08.701Z,26.72
2023-08-16T20:22:36.235Z,26.78
2023-08-16T20:25:03.845Z,26.67
2023-08-16T20:27:31.430Z,26.61
2023-08-16T20:29:58.069Z,26.63
2023-08-16T20:32:24.639Z,26.63
2023-08-16T20:34:53.207Z,26.58
2023-08-16T20:37:19.914Z,26.55
2023-08-16T20:39:51.611Z,26.52
2023-08-16T20:42:18.665Z,26.47
2023-08-16T20:44:45.680Z,26.44
2023-08-16T20:47:12.886Z,26.43
2023-08-16T20:49:39.856Z,26.38
2023-08-16T20:52:06.948Z,26.30
2023-08-16T20:54:34.005Z,26.22
2023-08-16T20:57:00.498Z,26.22
2023-08-16T20:59:29.292Z,26.13
2023-08-16T21:01:55.937Z,26.12
2023-08-16T21:04:22.568Z,26.06
2023-08-16T21:06:49.065Z,25.98
2023-08-16T21:09:16.611Z,25.89
2023-08-16T21:11:43.227Z,25.82
2023-08-16T21:14:09.827Z,25.74
2023-08-16T21:16:37.417Z,25.76
2023-08-16T21:19:04.193Z,25.77
2023-08-16T21:21:32.618Z,25.74
2023-08-16T21:23:59.281Z,25.67
2023-08-16T21:26:25.957Z,25.61
2023-08-16T21:28:52.464Z,25.56
2023-08-16T21:31:22.941Z,25.57
2023-08-16T21:33:50.053Z,25.59
2023-08-16T21:36:17.257Z,25.59
2023-08-16T21:38:45.827Z,25.46
2023-08-16T21:41:15.270Z,25.41
2023-08-16T21:43:41.844Z,25.38
2023-08-16T21:46:10.313Z,25.36
2023-08-16T21:48:38.228Z,25.31
2023-08-16T21:51:05.819Z,25.26
2023-08-16T21:53:32.427Z,25.23
2023-08-16T21:56:00.009Z,25.12
2023-08-16T21:58:26.955Z,24.99
2023-08-16T22:00:56.193Z,24.89
2023-08-16T22:03:24.840Z,24.81
2023-08-16T22:05:52.368Z,24.75
2023-08-16T22:08:19.963Z,24.71
2023-08-16T22:10:49.342Z,24.69
2023-08-16T22:13:16.928Z,24.68
2023-08-16T22:15:43.737Z,24.58
2023-08-16T22:18:11.366Z,24.48
2023-08-16T22:20:39.970Z,24.47
2023-08-16T22:23:12.576Z,24.45
2023-08-16T22:25:40.162Z,24.42
2023-08-16T22:28:08.614Z,24.49
2023-08-16T22:30:35.601Z,24.57
2023-08-16T22:33:02.259Z,24.56
2023-08-16T22:35:29.550Z,24.55
2023-08-16T22:37:56.399Z,24.51
2023-08-16T22:40:26.501Z,24.47
2023-08-16T22:42:52.977Z,24.48
2023-08-16T22:45:19.456Z,24.48
2023-08-16T22:47:46.164Z,24.35
2023-08-16T22:50:12.821Z,24.32
2023-08-16T22:52:40.383Z,24.28
2023-08-16T22:55:10.463Z,24.31
2023-08-16T22:57:37.057Z,24.35
2023-08-16T23:00:03.838Z,24.30
2023-08-16T23:02:30.346Z,24.30
2023-08-16T23:04:56.870Z,24.21
2023-08-16T23:07:23.629Z,24.16
2023-08-16T23:09:54.171Z,24.19
2023-08-16T23:12:28.517Z,24.19
2023-08-16T23:14:56.223Z,24.26
2023-08-16T23:17:22.904Z,24.31
2023-08-16T23:19:49.563Z,24.30
2023-08-16T23:22:16.089Z,24.29
2023-08-16T23:24:42.614Z,24.38
2023-08-16T23:27:09.087Z,24.44
2023-08-16T23:29:35.953Z,24.50
2023-08-16T23:32:02.444Z,24.57
2023-08-16T23:34:29.292Z,24.56
2023-08-16T23:36:55.785Z,24.54
2023-08-16T23:39:28.151Z,24.54
2023-08-16T23:41:56.793Z,24.47
2023-08-16T23:44:26.340Z,24.42
2023-08-16T23:46:52.809Z,24.40
2023-08-16T23:52:01.179Z,24.35
2023-08-16T23:54:28.777Z,24.33
2023-08-16T23:56:57.386Z,24.30
2023-08-16T23:59:24.989Z,24.23
